sensor_id;sensor_type;location;lat;lon;timestamp;P1;durP1;ratioP1;P2;durP2;ratioP2
13040;SDS011;6587;42.728;23.288;2022-08-21T00:00:09;21.10;;;12.37;;
13040;SDS011;6587;42.728;23.288;2022-08-21T00:02:45;24.63;;;12.90;;
13040;SDS011;6587;42.728;23.288;2022-08-21T00:05:15;25.83;;;14.30;;
13040;SDS011;6587;42.728;23.288;2022-08-21T00:07:43;28.30;;;15.23;;
13040;SDS011;6587;42.728;23.288;2022-08-21T00:10:10;29.77;;;15.20;;
13040;SDS011;6587;42.728;23.288;2022-08-21T00:12:38;28.30;;;16.00;;
13040;SDS011;6587;42.728;23.288;2022-08-21T00:15:07;28.67;;;16.40;;
13040;SDS011;6587;42.728;23.288;2022-08-21T00:17:35;27.90;;;15.73;;
13040;SDS011;6587;42.728;23.288;2022-08-21T00:20:05;32.60;;;17.33;;
13040;SDS011;6587;42.728;23.288;2022-08-21T00:22:35;23.80;;;13.53;;
13040;SDS011;6587;42.728;23.288;2022-08-21T00:25:02;20.97;;;12.00;;
13040;SDS011;6587;42.728;23.288;2022-08-21T00:27:31;20.50;;;11.07;;
13040;SDS011;6587;42.728;23.288;2022-08-21T00:29:58;23.23;;;12.73;;
13040;SDS011;6587;42.728;23.288;2022-08-21T00:32:26;20.07;;;12.33;;
13040;SDS011;6587;42.728;23.288;2022-08-21T00:34:53;20.20;;;11.80;;
13040;SDS011;6587;42.728;23.288;2022-08-21T00:37:23;22.80;;;12.43;;
13040;SDS011;6587;42.728;23.288;2022-08-21T00:39:50;19.03;;;12.03;;
13040;SDS011;6587;42.728;23.288;2022-08-21T00:42:18;18.63;;;11.23;;
13040;SDS011;6587;42.728;23.288;2022-08-21T00:44:46;21.03;;;11.77;;
13040;SDS011;6587;42.728;23.288;2022-08-21T00:47:15;20.40;;;11.37;;
13040;SDS011;6587;42.728;23.288;2022-08-21T00:49:42;19.70;;;10.37;;
13040;SDS011;6587;42.728;23.288;2022-08-21T00:52:10;21.33;;;10.60;;
13040;SDS011;6587;42.728;23.288;2022-08-21T00:54:44;16.17;;;10.07;;
13040;SDS011;6587;42.728;23.288;2022-08-21T00:57:13;21.17;;;11.07;;
13040;SDS011;6587;42.728;23.288;2022-08-21T00:59:43;15.03;;;9.77;;
13040;SDS011;6587;42.728;23.288;2022-08-21T01:02:12;20.30;;;10.33;;
13040;SDS011;6587;42.728;23.288;2022-08-21T01:04:39;15.63;;;9.67;;
13040;SDS011;6587;42.728;23.288;2022-08-21T01:07:06;19.83;;;11.63;;
13040;SDS011;6587;42.728;23.288;2022-08-21T01:09:34;19.23;;;10.00;;
13040;SDS011;6587;42.728;23.288;2022-08-21T01:12:03;24.33;;;13.60;;
13040;SDS011;6587;42.728;23.288;2022-08-21T01:14:31;21.37;;;12.63;;
13040;SDS011;6587;42.728;23.288;2022-08-21T01:16:59;22.40;;;13.00;;
13040;SDS011;6587;42.728;23.288;2022-08-21T01:19:28;23.80;;;13.20;;
13040;SDS011;6587;42.728;23.288;2022-08-21T01:21:57;19.93;;;11.63;;
13040;SDS011;6587;42.728;23.288;2022-08-21T01:24:25;22.20;;;12.37;;
13040;SDS011;6587;42.728;23.288;2022-08-21T01:26:53;18.40;;;10.63;;
13040;SDS011;6587;42.728;23.288;2022-08-21T01:29:23;19.20;;;11.27;;
13040;SDS011;6587;42.728;23.288;2022-08-21T01:31:57;17.60;;;11.00;;
13040;SDS011;6587;42.728;23.288;2022-08-21T01:34:24;17.57;;;9.60;;
13040;SDS011;6587;42.728;23.288;2022-08-21T01:36:51;15.27;;;8.63;;
13040;SDS011;6587;42.728;23.288;2022-08-21T01:39:20;13.37;;;8.23;;
13040;SDS011;6587;42.728;23.288;2022-08-21T01:41:47;12.50;;;7.97;;
13040;SDS011;6587;42.728;23.288;2022-08-21T01:44:14;13.40;;;7.87;;
13040;SDS011;6587;42.728;23.288;2022-08-21T01:46:41;12.23;;;8.27;;
13040;SDS011;6587;42.728;23.288;2022-08-21T01:49:08;12.00;;;7.23;;
13040;SDS011;6587;42.728;23.288;2022-08-21T01:51:35;11.93;;;7.80;;
13040;SDS011;6587;42.728;23.288;2022-08-21T01:54:02;14.37;;;8.03;;
13040;SDS011;6587;42.728;23.288;2022-08-21T01:56:31;11.67;;;8.37;;
13040;SDS011;6587;42.728;23.288;2022-08-21T01:59:02;13.10;;;7.80;;
13040;SDS011;6587;42.728;23.288;2022-08-21T02:01:29;12.43;;;8.37;;
13040;SDS011;6587;42.728;23.288;2022-08-21T02:03:56;14.67;;;9.57;;
13040;SDS011;6587;42.728;23.288;2022-08-21T02:06:24;17.73;;;9.33;;
13040;SDS011;6587;42.728;23.288;2022-08-21T02:08:52;15.40;;;9.27;;
13040;SDS011;6587;42.728;23.288;2022-08-21T02:11:19;14.43;;;9.83;;
13040;SDS011;6587;42.728;23.288;2022-08-21T02:13:48;14.47;;;8.40;;
13040;SDS011;6587;42.728;23.288;2022-08-21T02:16:15;13.70;;;9.27;;
13040;SDS011;6587;42.728;23.288;2022-08-21T02:18:44;15.93;;;10.03;;
13040;SDS011;6587;42.728;23.288;2022-08-21T02:21:11;18.00;;;10.23;;
13040;SDS011;6587;42.728;23.288;2022-08-21T02:23:38;14.83;;;9.87;;
13040;SDS011;6587;42.728;23.288;2022-08-21T02:26:05;16.53;;;10.67;;
13040;SDS011;6587;42.728;23.288;2022-08-21T02:28:34;15.70;;;9.60;;
13040;SDS011;6587;42.728;23.288;2022-08-21T02:31:05;15.93;;;10.10;;
13040;SDS011;6587;42.728;23.288;2022-08-21T02:33:32;18.60;;;10.30;;
13040;SDS011;6587;42.728;23.288;2022-08-21T02:36:00;18.13;;;10.53;;
13040;SDS011;6587;42.728;23.288;2022-08-21T02:38:29;17.07;;;10.10;;
13040;SDS011;6587;42.728;23.288;2022-08-21T02:41:03;16.47;;;9.57;;
13040;SDS011;6587;42.728;23.288;2022-08-21T02:43:31;17.90;;;10.47;;
13040;SDS011;6587;42.728;23.288;2022-08-21T02:45:58;16.13;;;9.83;;
13040;SDS011;6587;42.728;23.288;2022-08-21T02:48:27;16.03;;;9.77;;
13040;SDS011;6587;42.728;23.288;2022-08-21T02:50:56;16.67;;;10.57;;
13040;SDS011;6587;42.728;23.288;2022-08-21T02:53:25;14.23;;;9.93;;
13040;SDS011;6587;42.728;23.288;2022-08-21T02:55:53;17.67;;;9.80;;
13040;SDS011;6587;42.728;23.288;2022-08-21T02:58:21;18.13;;;10.10;;
13040;SDS011;6587;42.728;23.288;2022-08-21T03:00:50;18.40;;;11.17;;
13040;SDS011;6587;42.728;23.288;2022-08-21T03:03:17;17.40;;;10.70;;
13040;SDS011;6587;42.728;23.288;2022-08-21T03:05:47;14.43;;;9.47;;
13040;SDS011;6587;42.728;23.288;2022-08-21T03:08:15;17.37;;;10.23;;
13040;SDS011;6587;42.728;23.288;2022-08-21T03:10:45;17.50;;;11.03;;
13040;SDS011;6587;42.728;23.288;2022-08-21T03:13:13;17.53;;;10.93;;
13040;SDS011;6587;42.728;23.288;2022-08-21T03:15:41;18.43;;;12.00;;
13040;SDS011;6587;42.728;23.288;2022-08-21T03:18:09;18.63;;;11.33;;
13040;SDS011;6587;42.728;23.288;2022-08-21T03:20:37;17.60;;;10.27;;
13040;SDS011;6587;42.728;23.288;2022-08-21T03:23:06;17.00;;;10.90;;
13040;SDS011;6587;42.728;23.288;2022-08-21T03:25:34;15.53;;;10.17;;
13040;SDS011;6587;42.728;23.288;2022-08-21T03:28:03;17.33;;;10.73;;
13040;SDS011;6587;42.728;23.288;2022-08-21T03:30:32;16.30;;;10.53;;
13040;SDS011;6587;42.728;23.288;2022-08-21T03:32:59;15.37;;;9.43;;
13040;SDS011;6587;42.728;23.288;2022-08-21T03:35:27;29.67;;;10.33;;
13040;SDS011;6587;42.728;23.288;2022-08-21T03:37:54;16.97;;;10.00;;
13040;SDS011;6587;42.728;23.288;2022-08-21T03:40:23;14.83;;;10.57;;
13040;SDS011;6587;42.728;23.288;2022-08-21T03:42:50;15.10;;;10.63;;
13040;SDS011;6587;42.728;23.288;2022-08-21T03:45:18;15.47;;;10.13;;
13040;SDS011;6587;42.728;23.288;2022-08-21T03:47:53;17.30;;;10.70;;
13040;SDS011;6587;42.728;23.288;2022-08-21T03:50:21;17.90;;;11.30;;
13040;SDS011;6587;42.728;23.288;2022-08-21T03:52:49;19.43;;;10.90;;
13040;SDS011;6587;42.728;23.288;2022-08-21T03:55:18;19.37;;;11.70;;
13040;SDS011;6587;42.728;23.288;2022-08-21T03:57:49;20.40;;;12.67;;
13040;SDS011;6587;42.728;23.288;2022-08-21T04:00:16;22.13;;;13.60;;
13040;SDS011;6587;42.728;23.288;2022-08-21T04:02:45;19.40;;;11.73;;
13040;SDS011;6587;42.728;23.288;2022-08-21T04:05:12;23.83;;;12.47;;
13040;SDS011;6587;42.728;23.288;2022-08-21T04:07:52;21.00;;;13.03;;
13040;SDS011;6587;42.728;23.288;2022-08-21T04:10:19;19.57;;;12.70;;
13040;SDS011;6587;42.728;23.288;2022-08-21T04:12:47;25.03;;;14.67;;
13040;SDS011;6587;42.728;23.288;2022-08-21T04:15:15;24.20;;;14.57;;
13040;SDS011;6587;42.728;23.288;2022-08-21T04:17:42;24.27;;;13.73;;
13040;SDS011;6587;42.728;23.288;2022-08-21T04:20:09;23.57;;;14.03;;
13040;SDS011;6587;42.728;23.288;2022-08-21T04:22:37;25.03;;;14.20;;
13040;SDS011;6587;42.728;23.288;2022-08-21T04:25:05;26.00;;;14.70;;
13040;SDS011;6587;42.728;23.288;2022-08-21T04:27:32;25.90;;;15.30;;
13040;SDS011;6587;42.728;23.288;2022-08-21T04:29:59;26.53;;;14.00;;
13040;SDS011;6587;42.728;23.288;2022-08-21T04:32:27;24.60;;;14.37;;
13040;SDS011;6587;42.728;23.288;2022-08-21T04:34:59;31.17;;;17.83;;
13040;SDS011;6587;42.728;23.288;2022-08-21T04:37:26;32.60;;;19.77;;
13040;SDS011;6587;42.728;23.288;2022-08-21T04:39:53;36.87;;;20.77;;
13040;SDS011;6587;42.728;23.288;2022-08-21T04:42:22;34.27;;;20.03;;
13040;SDS011;6587;42.728;23.288;2022-08-21T04:44:50;34.80;;;19.20;;
13040;SDS011;6587;42.728;23.288;2022-08-21T04:47:17;34.87;;;19.90;;
13040;SDS011;6587;42.728;23.288;2022-08-21T04:49:45;32.80;;;18.27;;
13040;SDS011;6587;42.728;23.288;2022-08-21T04:52:13;27.47;;;17.70;;
13040;SDS011;6587;42.728;23.288;2022-08-21T04:54:43;24.80;;;15.70;;
13040;SDS011;6587;42.728;23.288;2022-08-21T04:57:11;28.50;;;16.33;;
13040;SDS011;6587;42.728;23.288;2022-08-21T04:59:42;27.40;;;15.93;;
13040;SDS011;6587;42.728;23.288;2022-08-21T05:02:12;27.40;;;14.70;;
13040;SDS011;6587;42.728;23.288;2022-08-21T05:04:41;23.10;;;14.37;;
13040;SDS011;6587;42.728;23.288;2022-08-21T05:07:14;26.60;;;15.47;;
13040;SDS011;6587;42.728;23.288;2022-08-21T05:09:44;26.27;;;14.40;;
13040;SDS011;6587;42.728;23.288;2022-08-21T05:12:12;22.33;;;12.33;;
13040;SDS011;6587;42.728;23.288;2022-08-21T05:14:39;19.57;;;12.93;;
13040;SDS011;6587;42.728;23.288;2022-08-21T05:17:07;21.37;;;12.43;;
13040;SDS011;6587;42.728;23.288;2022-08-21T05:19:34;22.37;;;12.57;;
13040;SDS011;6587;42.728;23.288;2022-08-21T05:22:01;25.03;;;13.50;;
13040;SDS011;6587;42.728;23.288;2022-08-21T05:24:29;25.57;;;13.33;;
13040;SDS011;6587;42.728;23.288;2022-08-21T05:26:56;22.97;;;13.70;;
13040;SDS011;6587;42.728;23.288;2022-08-21T05:29:23;24.43;;;13.77;;
13040;SDS011;6587;42.728;23.288;2022-08-21T05:31:51;26.10;;;14.97;;
13040;SDS011;6587;42.728;23.288;2022-08-21T05:34:18;23.57;;;14.90;;
13040;SDS011;6587;42.728;23.288;2022-08-21T05:36:47;26.13;;;15.70;;
13040;SDS011;6587;42.728;23.288;2022-08-21T05:39:14;25.27;;;15.77;;
13040;SDS011;6587;42.728;23.288;2022-08-21T05:41:43;29.40;;;16.90;;
13040;SDS011;6587;42.728;23.288;2022-08-21T05:44:10;27.20;;;15.77;;
13040;SDS011;6587;42.728;23.288;2022-08-21T05:46:36;26.23;;;16.00;;
13040;SDS011;6587;42.728;23.288;2022-08-21T05:49:03;26.80;;;15.83;;
13040;SDS011;6587;42.728;23.288;2022-08-21T05:51:30;27.07;;;16.67;;
13040;SDS011;6587;42.728;23.288;2022-08-21T05:53:57;31.93;;;17.10;;
13040;SDS011;6587;42.728;23.288;2022-08-21T05:56:24;28.87;;;17.60;;
13040;SDS011;6587;42.728;23.288;2022-08-21T05:58:53;26.93;;;15.77;;
13040;SDS011;6587;42.728;23.288;2022-08-21T06:01:20;32.93;;;17.73;;
13040;SDS011;6587;42.728;23.288;2022-08-21T06:03:47;34.40;;;18.30;;
13040;SDS011;6587;42.728;23.288;2022-08-21T06:06:14;30.93;;;18.30;;
13040;SDS011;6587;42.728;23.288;2022-08-21T06:08:41;32.93;;;18.93;;
13040;SDS011;6587;42.728;23.288;2022-08-21T06:11:09;34.47;;;19.50;;
13040;SDS011;6587;42.728;23.288;2022-08-21T06:13:37;35.67;;;19.30;;
13040;SDS011;6587;42.728;23.288;2022-08-21T06:16:06;35.17;;;19.93;;
13040;SDS011;6587;42.728;23.288;2022-08-21T06:18:35;39.13;;;20.23;;
13040;SDS011;6587;42.728;23.288;2022-08-21T06:21:03;33.43;;;20.37;;
13040;SDS011;6587;42.728;23.288;2022-08-21T06:23:31;37.63;;;20.83;;
13040;SDS011;6587;42.728;23.288;2022-08-21T06:25:58;36.43;;;20.60;;
13040;SDS011;6587;42.728;23.288;2022-08-21T06:28:24;37.83;;;22.33;;
13040;SDS011;6587;42.728;23.288;2022-08-21T06:30:51;37.70;;;22.47;;
13040;SDS011;6587;42.728;23.288;2022-08-21T06:33:20;39.97;;;24.13;;
13040;SDS011;6587;42.728;23.288;2022-08-21T06:35:46;34.07;;;20.93;;
13040;SDS011;6587;42.728;23.288;2022-08-21T06:38:13;33.37;;;21.00;;
13040;SDS011;6587;42.728;23.288;2022-08-21T06:40:40;38.20;;;20.83;;
13040;SDS011;6587;42.728;23.288;2022-08-21T06:43:08;37.10;;;19.67;;
13040;SDS011;6587;42.728;23.288;2022-08-21T06:45:36;30.20;;;18.17;;
13040;SDS011;6587;42.728;23.288;2022-08-21T06:48:04;32.33;;;18.90;;
13040;SDS011;6587;42.728;23.288;2022-08-21T06:50:33;29.17;;;18.10;;
13040;SDS011;6587;42.728;23.288;2022-08-21T06:53:02;30.30;;;19.03;;
13040;SDS011;6587;42.728;23.288;2022-08-21T06:55:30;27.93;;;18.07;;
13040;SDS011;6587;42.728;23.288;2022-08-21T06:57:58;31.83;;;17.57;;
13040;SDS011;6587;42.728;23.288;2022-08-21T07:00:25;29.27;;;16.50;;
13040;SDS011;6587;42.728;23.288;2022-08-21T07:02:52;25.60;;;15.93;;
13040;SDS011;6587;42.728;23.288;2022-08-21T07:05:20;27.13;;;17.07;;
13040;SDS011;6587;42.728;23.288;2022-08-21T07:07:49;29.50;;;16.23;;
13040;SDS011;6587;42.728;23.288;2022-08-21T07:10:16;23.63;;;16.40;;
13040;SDS011;6587;42.728;23.288;2022-08-21T07:12:43;22.57;;;15.00;;
13040;SDS011;6587;42.728;23.288;2022-08-21T07:15:10;24.87;;;15.07;;
13040;SDS011;6587;42.728;23.288;2022-08-21T07:17:37;25.03;;;14.20;;
13040;SDS011;6587;42.728;23.288;2022-08-21T07:20:04;22.13;;;13.23;;
13040;SDS011;6587;42.728;23.288;2022-08-21T07:22:32;18.47;;;12.90;;
13040;SDS011;6587;42.728;23.288;2022-08-21T07:25:01;19.50;;;13.30;;
13040;SDS011;6587;42.728;23.288;2022-08-21T07:27:28;21.07;;;12.80;;
13040;SDS011;6587;42.728;23.288;2022-08-21T07:29:56;20.03;;;11.90;;
13040;SDS011;6587;42.728;23.288;2022-08-21T07:32:22;19.03;;;12.47;;
13040;SDS011;6587;42.728;23.288;2022-08-21T07:34:49;19.83;;;12.53;;
13040;SDS011;6587;42.728;23.288;2022-08-21T07:37:16;22.07;;;12.10;;
13040;SDS011;6587;42.728;23.288;2022-08-21T07:39:43;17.87;;;11.30;;
13040;SDS011;6587;42.728;23.288;2022-08-21T07:42:14;15.37;;;10.53;;
13040;SDS011;6587;42.728;23.288;2022-08-21T07:44:42;17.80;;;11.13;;
13040;SDS011;6587;42.728;23.288;2022-08-21T07:47:09;22.37;;;11.83;;
13040;SDS011;6587;42.728;23.288;2022-08-21T07:49:35;19.50;;;12.93;;
13040;SDS011;6587;42.728;23.288;2022-08-21T07:52:03;20.07;;;12.90;;
13040;SDS011;6587;42.728;23.288;2022-08-21T07:54:29;18.40;;;12.20;;
13040;SDS011;6587;42.728;23.288;2022-08-21T07:56:56;16.40;;;11.70;;
13040;SDS011;6587;42.728;23.288;2022-08-21T07:59:25;19.50;;;11.80;;
13040;SDS011;6587;42.728;23.288;2022-08-21T08:01:51;18.00;;;11.40;;
13040;SDS011;6587;42.728;23.288;2022-08-21T08:04:18;21.93;;;12.57;;
13040;SDS011;6587;42.728;23.288;2022-08-21T08:06:45;18.37;;;12.40;;
13040;SDS011;6587;42.728;23.288;2022-08-21T08:09:12;17.57;;;11.83;;
13040;SDS011;6587;42.728;23.288;2022-08-21T08:11:41;21.07;;;11.43;;
13040;SDS011;6587;42.728;23.288;2022-08-21T08:14:10;21.37;;;13.07;;
13040;SDS011;6587;42.728;23.288;2022-08-21T08:16:38;20.97;;;12.40;;
13040;SDS011;6587;42.728;23.288;2022-08-21T08:19:05;20.00;;;12.13;;
13040;SDS011;6587;42.728;23.288;2022-08-21T08:21:32;23.13;;;12.33;;
13040;SDS011;6587;42.728;23.288;2022-08-21T08:23:59;18.00;;;11.27;;
13040;SDS011;6587;42.728;23.288;2022-08-21T08:26:26;22.67;;;11.93;;
13040;SDS011;6587;42.728;23.288;2022-08-21T08:28:53;19.23;;;12.00;;
13040;SDS011;6587;42.728;23.288;2022-08-21T08:31:19;18.10;;;11.67;;
13040;SDS011;6587;42.728;23.288;2022-08-21T08:33:48;18.73;;;10.65;;
13040;SDS011;6587;42.728;23.288;2022-08-21T08:36:15;17.17;;;11.10;;
13040;SDS011;6587;42.728;23.288;2022-08-21T08:38:44;17.20;;;11.53;;
13040;SDS011;6587;42.728;23.288;2022-08-21T08:41:12;14.97;;;10.43;;
13040;SDS011;6587;42.728;23.288;2022-08-21T08:43:44;18.63;;;11.37;;
13040;SDS011;6587;42.728;23.288;2022-08-21T08:46:18;16.65;;;11.60;;
13040;SDS011;6587;42.728;23.288;2022-08-21T08:48:49;18.67;;;11.90;;
13040;SDS011;6587;42.728;23.288;2022-08-21T08:51:21;17.80;;;11.33;;
13040;SDS011;6587;42.728;23.288;2022-08-21T08:53:52;21.63;;;12.55;;
13040;SDS011;6587;42.728;23.288;2022-08-21T08:56:26;14.57;;;10.23;;
13040;SDS011;6587;42.728;23.288;2022-08-21T08:58:56;15.43;;;10.20;;
13040;SDS011;6587;42.728;23.288;2022-08-21T09:01:28;17.10;;;10.30;;
13040;SDS011;6587;42.728;23.288;2022-08-21T09:03:56;17.98;;;11.45;;
13040;SDS011;6587;42.728;23.288;2022-08-21T09:09:22;15.05;;;10.10;;
13040;SDS011;6587;42.728;23.288;2022-08-21T09:11:59;14.88;;;10.15;;
13040;SDS011;6587;42.728;23.288;2022-08-21T09:14:39;13.45;;;9.18;;
13040;SDS011;6587;42.728;23.288;2022-08-21T09:17:18;16.08;;;10.07;;
13040;SDS011;6587;42.728;23.288;2022-08-21T09:19:58;12.63;;;7.85;;
13040;SDS011;6587;42.728;23.288;2022-08-21T09:22:38;13.70;;;8.25;;
13040;SDS011;6587;42.728;23.288;2022-08-21T09:25:12;17.05;;;9.27;;
13040;SDS011;6587;42.728;23.288;2022-08-21T09:27:46;12.10;;;7.93;;
13040;SDS011;6587;42.728;23.288;2022-08-21T09:30:13;13.07;;;8.05;;
13040;SDS011;6587;42.728;23.288;2022-08-21T09:32:40;12.05;;;7.82;;
13040;SDS011;6587;42.728;23.288;2022-08-21T09:35:10;13.77;;;7.75;;
13040;SDS011;6587;42.728;23.288;2022-08-21T09:37:46;11.10;;;7.63;;
13040;SDS011;6587;42.728;23.288;2022-08-21T09:40:23;15.27;;;7.63;;
13040;SDS011;6587;42.728;23.288;2022-08-21T09:42:57;11.38;;;7.88;;
13040;SDS011;6587;42.728;23.288;2022-08-21T09:45:26;11.48;;;7.32;;
13040;SDS011;6587;42.728;23.288;2022-08-21T09:47:53;12.85;;;6.72;;
13040;SDS011;6587;42.728;23.288;2022-08-21T09:50:23;12.25;;;7.65;;
13040;SDS011;6587;42.728;23.288;2022-08-21T09:52:55;12.27;;;7.10;;
13040;SDS011;6587;42.728;23.288;2022-08-21T09:55:30;12.98;;;6.68;;
13040;SDS011;6587;42.728;23.288;2022-08-21T09:58:16;9.18;;;7.05;;
13040;SDS011;6587;42.728;23.288;2022-08-21T10:00:44;11.18;;;6.97;;
13040;SDS011;6587;42.728;23.288;2022-08-21T10:03:13;7.18;;;6.25;;
13040;SDS011;6587;42.728;23.288;2022-08-21T10:05:53;9.15;;;6.13;;
13040;SDS011;6587;42.728;23.288;2022-08-21T10:08:23;9.77;;;5.45;;
13040;SDS011;6587;42.728;23.288;2022-08-21T10:10:55;8.52;;;6.55;;
13040;SDS011;6587;42.728;23.288;2022-08-21T10:13:26;13.38;;;6.78;;
13040;SDS011;6587;42.728;23.288;2022-08-21T10:16:15;11.30;;;6.28;;
13040;SDS011;6587;42.728;23.288;2022-08-21T10:18:56;12.18;;;6.32;;
13040;SDS011;6587;42.728;23.288;2022-08-21T10:21:34;10.70;;;6.88;;
13040;SDS011;6587;42.728;23.288;2022-08-21T10:24:06;10.55;;;6.25;;
13040;SDS011;6587;42.728;23.288;2022-08-21T10:26:41;10.98;;;6.35;;
13040;SDS011;6587;42.728;23.288;2022-08-21T10:29:19;12.25;;;6.20;;
13040;SDS011;6587;42.728;23.288;2022-08-21T10:32:00;8.48;;;6.10;;
13040;SDS011;6587;42.728;23.288;2022-08-21T10:34:35;10.60;;;6.10;;
13040;SDS011;6587;42.728;23.288;2022-08-21T10:37:13;9.75;;;5.80;;
13040;SDS011;6587;42.728;23.288;2022-08-21T10:39:51;8.32;;;6.07;;
13040;SDS011;6587;42.728;23.288;2022-08-21T10:42:31;8.40;;;5.90;;
13040;SDS011;6587;42.728;23.288;2022-08-21T10:45:11;9.77;;;6.10;;
13040;SDS011;6587;42.728;23.288;2022-08-21T10:47:49;10.05;;;6.00;;
13040;SDS011;6587;42.728;23.288;2022-08-21T10:50:24;10.27;;;5.88;;
13040;SDS011;6587;42.728;23.288;2022-08-21T10:53:05;9.95;;;6.22;;
13040;SDS011;6587;42.728;23.288;2022-08-21T10:55:41;9.02;;;6.05;;
13040;SDS011;6587;42.728;23.288;2022-08-21T10:58:11;11.15;;;6.00;;
13040;SDS011;6587;42.728;23.288;2022-08-21T11:00:41;7.28;;;5.38;;
13040;SDS011;6587;42.728;23.288;2022-08-21T11:03:13;11.48;;;5.60;;
13040;SDS011;6587;42.728;23.288;2022-08-21T11:05:43;14.02;;;6.35;;
13040;SDS011;6587;42.728;23.288;2022-08-21T11:08:17;8.85;;;5.43;;
13040;SDS011;6587;42.728;23.288;2022-08-21T11:10:48;8.20;;;5.38;;
13040;SDS011;6587;42.728;23.288;2022-08-21T11:13:19;11.20;;;6.22;;
13040;SDS011;6587;42.728;23.288;2022-08-21T11:15:55;8.55;;;6.15;;
13040;SDS011;6587;42.728;23.288;2022-08-21T11:18:27;10.07;;;5.50;;
13040;SDS011;6587;42.728;23.288;2022-08-21T11:21:02;10.10;;;5.50;;
13040;SDS011;6587;42.728;23.288;2022-08-21T11:23:37;11.45;;;6.65;;
13040;SDS011;6587;42.728;23.288;2022-08-21T11:26:09;10.85;;;5.95;;
13040;SDS011;6587;42.728;23.288;2022-08-21T11:28:42;8.00;;;5.35;;
13040;SDS011;6587;42.728;23.288;2022-08-21T11:31:21;8.23;;;5.82;;
13040;SDS011;6587;42.728;23.288;2022-08-21T11:34:07;9.38;;;6.15;;
13040;SDS011;6587;42.728;23.288;2022-08-21T11:36:46;8.20;;;5.93;;
13040;SDS011;6587;42.728;23.288;2022-08-21T11:39:24;8.52;;;5.78;;
13040;SDS011;6587;42.728;23.288;2022-08-21T11:41:59;6.93;;;5.55;;
13040;SDS011;6587;42.728;23.288;2022-08-21T11:44:48;12.40;;;5.88;;
13040;SDS011;6587;42.728;23.288;2022-08-21T11:47:23;10.38;;;6.07;;
13040;SDS011;6587;42.728;23.288;2022-08-21T11:50:02;8.73;;;5.53;;
13040;SDS011;6587;42.728;23.288;2022-08-21T11:52:40;11.07;;;5.85;;
13040;SDS011;6587;42.728;23.288;2022-08-21T11:55:15;9.10;;;5.32;;
13040;SDS011;6587;42.728;23.288;2022-08-21T11:57:46;9.73;;;6.07;;
13040;SDS011;6587;42.728;23.288;2022-08-21T12:00:21;7.93;;;5.43;;
13040;SDS011;6587;42.728;23.288;2022-08-21T12:02:53;6.88;;;5.15;;
13040;SDS011;6587;42.728;23.288;2022-08-21T12:05:24;12.60;;;6.57;;
13040;SDS011;6587;42.728;23.288;2022-08-21T12:08:00;8.85;;;6.03;;
13040;SDS011;6587;42.728;23.288;2022-08-21T12:10:33;11.50;;;6.22;;
13040;SDS011;6587;42.728;23.288;2022-08-21T12:13:05;6.78;;;5.47;;
13040;SDS011;6587;42.728;23.288;2022-08-21T12:15:35;7.65;;;5.45;;
13040;SDS011;6587;42.728;23.288;2022-08-21T12:18:03;8.68;;;5.40;;
13040;SDS011;6587;42.728;23.288;2022-08-21T12:20:39;9.80;;;5.70;;
13040;SDS011;6587;42.728;23.288;2022-08-21T12:23:16;11.82;;;6.00;;
13040;SDS011;6587;42.728;23.288;2022-08-21T12:26:00;7.40;;;5.72;;
13040;SDS011;6587;42.728;23.288;2022-08-21T12:28:39;9.25;;;5.85;;
13040;SDS011;6587;42.728;23.288;2022-08-21T12:31:16;11.45;;;5.70;;
13040;SDS011;6587;42.728;23.288;2022-08-21T12:33:47;8.18;;;6.05;;
13040;SDS011;6587;42.728;23.288;2022-08-21T12:36:20;8.57;;;5.70;;
13040;SDS011;6587;42.728;23.288;2022-08-21T12:38:51;9.30;;;5.88;;
13040;SDS011;6587;42.728;23.288;2022-08-21T12:41:24;9.32;;;5.40;;
13040;SDS011;6587;42.728;23.288;2022-08-21T12:43:56;11.55;;;6.30;;
13040;SDS011;6587;42.728;23.288;2022-08-21T12:46:35;11.95;;;6.38;;
13040;SDS011;6587;42.728;23.288;2022-08-21T12:49:07;10.35;;;6.65;;
13040;SDS011;6587;42.728;23.288;2022-08-21T12:51:48;11.48;;;7.28;;
13040;SDS011;6587;42.728;23.288;2022-08-21T12:54:25;9.60;;;6.35;;
13040;SDS011;6587;42.728;23.288;2022-08-21T12:57:00;12.30;;;6.22;;
13040;SDS011;6587;42.728;23.288;2022-08-21T12:59:28;9.48;;;6.43;;
13040;SDS011;6587;42.728;23.288;2022-08-21T13:01:56;10.75;;;6.38;;
13040;SDS011;6587;42.728;23.288;2022-08-21T13:04:31;10.00;;;6.50;;
13040;SDS011;6587;42.728;23.288;2022-08-21T13:07:04;9.73;;;6.22;;
13040;SDS011;6587;42.728;23.288;2022-08-21T13:09:36;7.32;;;6.20;;
13040;SDS011;6587;42.728;23.288;2022-08-21T13:12:10;9.27;;;6.47;;
13040;SDS011;6587;42.728;23.288;2022-08-21T13:14:38;12.23;;;6.95;;
13040;SDS011;6587;42.728;23.288;2022-08-21T13:17:07;9.63;;;5.72;;
13040;SDS011;6587;42.728;23.288;2022-08-21T13:19:34;11.07;;;6.43;;
13040;SDS011;6587;42.728;23.288;2022-08-21T13:22:01;10.27;;;6.15;;
13040;SDS011;6587;42.728;23.288;2022-08-21T13:24:29;9.85;;;6.63;;
13040;SDS011;6587;42.728;23.288;2022-08-21T13:26:59;8.90;;;5.72;;
13040;SDS011;6587;42.728;23.288;2022-08-21T13:29:29;10.68;;;6.07;;
13040;SDS011;6587;42.728;23.288;2022-08-21T13:31:57;11.02;;;5.95;;
13040;SDS011;6587;42.728;23.288;2022-08-21T13:34:29;9.70;;;6.15;;
13040;SDS011;6587;42.728;23.288;2022-08-21T13:37:00;11.80;;;6.15;;
13040;SDS011;6587;42.728;23.288;2022-08-21T13:39:30;8.00;;;5.40;;
13040;SDS011;6587;42.728;23.288;2022-08-21T13:41:58;9.85;;;5.40;;
13040;SDS011;6587;42.728;23.288;2022-08-21T13:44:33;9.80;;;6.20;;
13040;SDS011;6587;42.728;23.288;2022-08-21T13:47:04;9.98;;;5.57;;
13040;SDS011;6587;42.728;23.288;2022-08-21T13:49:33;10.38;;;5.70;;
13040;SDS011;6587;42.728;23.288;2022-08-21T13:52:03;8.40;;;5.13;;
13040;SDS011;6587;42.728;23.288;2022-08-21T13:54:33;6.75;;;5.63;;
13040;SDS011;6587;42.728;23.288;2022-08-21T13:57:02;8.13;;;5.60;;
13040;SDS011;6587;42.728;23.288;2022-08-21T13:59:32;11.20;;;7.63;;
13040;SDS011;6587;42.728;23.288;2022-08-21T14:02:01;8.43;;;5.53;;
13040;SDS011;6587;42.728;23.288;2022-08-21T14:04:38;10.48;;;6.18;;
13040;SDS011;6587;42.728;23.288;2022-08-21T14:07:14;7.38;;;5.53;;
13040;SDS011;6587;42.728;23.288;2022-08-21T14:09:44;7.10;;;5.18;;
13040;SDS011;6587;42.728;23.288;2022-08-21T14:12:12;8.02;;;5.30;;
13040;SDS011;6587;42.728;23.288;2022-08-21T14:14:42;10.15;;;6.00;;
13040;SDS011;6587;42.728;23.288;2022-08-21T14:17:11;11.80;;;6.25;;
13040;SDS011;6587;42.728;23.288;2022-08-21T14:19:41;7.43;;;5.32;;
13040;SDS011;6587;42.728;23.288;2022-08-21T14:22:22;9.82;;;5.93;;
13040;SDS011;6587;42.728;23.288;2022-08-21T14:25:04;11.27;;;5.70;;
13040;SDS011;6587;42.728;23.288;2022-08-21T14:27:33;6.05;;;5.07;;
13040;SDS011;6587;42.728;23.288;2022-08-21T14:30:03;9.25;;;4.97;;
13040;SDS011;6587;42.728;23.288;2022-08-21T14:32:36;9.52;;;5.50;;
13040;SDS011;6587;42.728;23.288;2022-08-21T14:35:06;10.02;;;5.15;;
13040;SDS011;6587;42.728;23.288;2022-08-21T14:37:34;11.57;;;4.95;;
13040;SDS011;6587;42.728;23.288;2022-08-21T14:40:02;9.38;;;4.70;;
13040;SDS011;6587;42.728;23.288;2022-08-21T14:42:30;7.30;;;4.80;;
13040;SDS011;6587;42.728;23.288;2022-08-21T14:44:59;11.18;;;5.13;;
13040;SDS011;6587;42.728;23.288;2022-08-21T14:47:31;9.20;;;5.38;;
13040;SDS011;6587;42.728;23.288;2022-08-21T14:49:58;9.88;;;5.43;;